M I D A S
Marine Information and Data Acquisition System
Tripno 1336 of the Zeeleeuw from 2007-06-14 07:15:33 to 2007-06-14 17:00:00
Back to CruiseResearch ActivitiesStationsMapUnderway DataData graphs

EquipmentUnitsComment
TimeDGPSUTC
LatitudeDGPSDM.mWGS84
LongitudeDGPSDM.mWGS84
HeadingGyrodeg 
SOGDGPSknotsSpeed over ground
COGDGPSdegCourse over ground
DepthEcho soundermeters200 kHz
Missing or incorrect values are displayed as -999
Navigation data collected by the RV Zeeleeuw from 2007-06-14 07:06:23 to 2007-06-14 15:25:06
Time Latitude Longitude Heading SOG COG Depth
2007-06-14 07:07:27 51°13.6 2°56.095 126.6 -999 268 7.5
2007-06-14 07:08:27 51°13.601 2°56.094 125.7 -999 198 7.6
2007-06-14 07:09:28 51°13.601 2°56.094 125.5 -999 41 7.5
2007-06-14 07:10:27 51°13.599 2°56.093 125.6 0.1 169 7.5
2007-06-14 07:11:28 51°13.601 2°56.094 125.6 -999 182 7.5
2007-06-14 07:12:27 51°13.601 2°56.094 125.6 -999 210 7.6
2007-06-14 07:13:27 51°13.602 2°56.095 125.5 -999 168 7.6
2007-06-14 07:14:27 51°13.602 2°56.095 125.5 -999 112 7.6
2007-06-14 07:15:28 51°13.601 2°56.095 125.2 -999 242 7.6
2007-06-14 07:16:28 51°13.598 2°56.094 122.4 0.1 231 7.6
2007-06-14 07:17:28 51°13.598 2°56.095 117.9 0.1 148 7.6
2007-06-14 07:18:28 51°13.602 2°56.072 112.3 1.9 291 -999
2007-06-14 07:19:27 51°13.603 2°56.068 126.7 1.7 121 8.8
2007-06-14 07:20:28 51°13.576 2°56.118 136.7 3.1 135 9.7
2007-06-14 07:21:27 51°13.537 2°56.185 129.1 3.7 126 10.7
2007-06-14 07:22:27 51°13.521 2°56.27 88.4 3.1 77 10.5
2007-06-14 07:23:27 51°13.529 2°56.296 48.6 0.7 241 9.5
2007-06-14 07:24:27 51°13.534 2°56.293 19.1 1.3 8 5.2
2007-06-14 07:25:28 51°13.527 2°56.294 350.5 1.2 170 -999
2007-06-14 07:26:27 51°13.504 2°56.304 342.7 0.5 164 -999
2007-06-14 07:27:27 51°13.522 2°56.261 300.9 3.1 300 10.6
2007-06-14 07:28:27 51°13.552 2°56.171 299.5 4.4 297 9.7
2007-06-14 07:29:27 51°13.587 2°56.071 304.1 4 302 10.6
2007-06-14 07:30:27 51°13.635 2°55.954 307 6 305 10.5
2007-06-14 07:31:27 51°13.699 2°55.812 310.9 6.8 309 10.5
2007-06-14 07:32:27 51°13.788 2°55.675 323.9 8 325 10.6
2007-06-14 07:33:27 51°13.91 2°55.577 338.6 8.3 335 10.6
2007-06-14 07:34:27 51°14.037 2°55.487 339.8 8.5 337 10.7
2007-06-14 07:35:27 51°14.182 2°55.373 334 10.2 329 10.7
2007-06-14 07:36:27 51°14.309 2°55.19 313.9 10.7 310 10.8
2007-06-14 07:37:27 51°14.443 2°54.957 320.8 12.7 321 10
2007-06-14 07:38:27 51°14.634 2°54.812 347.9 12.7 342 8.6
2007-06-14 07:39:27 51°14.841 2°54.787 12.8 12.5 10 8.7
2007-06-14 07:40:27 51°15.041 2°54.868 18.8 12.3 12 8.2
2007-06-14 07:41:27 51°15.236 2°54.95 23.7 12 18 7.5
2007-06-14 07:42:27 51°15.431 2°55.028 15.8 12.3 9 8
2007-06-14 07:43:27 51°15.624 2°55.137 33.4 12.4 31 8.6
2007-06-14 07:44:27 51°15.767 2°55.367 54.5 12.3 53 8.8
2007-06-14 07:45:27 51°15.885 2°55.632 55.3 12.2 54 8.8
2007-06-14 07:46:27 51°16.002 2°55.9 59 12.3 55 8.9
2007-06-14 07:47:27 51°16.118 2°56.167 58.3 12.2 56 9
2007-06-14 07:48:27 51°16.234 2°56.433 58.2 12.3 55 8.9
2007-06-14 07:49:27 51°16.353 2°56.697 56.6 12.2 54 9.1
2007-06-14 07:50:27 51°16.471 2°56.96 57.1 12.2 54 9.2
2007-06-14 07:51:27 51°16.59 2°57.222 58 12.2 56 9.1
2007-06-14 07:52:27 51°16.708 2°57.486 56.9 12.2 55 9.2
2007-06-14 07:53:27 51°16.827 2°57.748 57.3 12.2 53 9.1
2007-06-14 07:54:27 51°16.942 2°58.015 58 12.2 55 8.9
2007-06-14 07:55:27 51°17.059 2°58.282 58.5 12.2 56 9
2007-06-14 07:56:27 51°17.17 2°58.554 61.6 12.2 60 8.7
2007-06-14 07:57:27 51°17.274 2°58.833 61.6 12.2 59 8.5
2007-06-14 07:58:27 51°17.38 2°59.111 61.6 12.2 60 8.4
2007-06-14 07:59:27 51°17.485 2°59.39 61.3 12.3 58 8.5
2007-06-14 08:00:27 51°17.593 2°59.667 60.8 12.3 57 8.4
2007-06-14 08:01:27 51°17.697 2°59.945 62.8 12.2 60 8.3
2007-06-14 08:02:27 51°17.805 3°0.22 61.6 12.1 60 8.2
2007-06-14 08:03:27 51°17.906 3°0.499 61.6 12.2 59 8
2007-06-14 08:04:27 51°18.011 3°0.775 62.4 12.1 58 7.8
2007-06-14 08:05:27 51°18.12 3°1.045 62.3 12.2 61 7.6
2007-06-14 08:06:27 51°18.226 3°1.321 57.9 12.3 56 7.7
2007-06-14 08:07:27 51°18.329 3°1.603 65.7 12.3 63 7.7
2007-06-14 08:08:27 51°18.462 3°1.843 43.6 12.1 40 7.3
2007-06-14 08:09:27 51°18.634 3°2.003 29.6 12.1 25 7.5
2007-06-14 08:10:27 51°18.807 3°2.168 39.4 12.3 34 7.8
2007-06-14 08:11:27 51°18.987 3°2.317 29.9 12.3 24 7.8
2007-06-14 08:12:27 51°19.171 3°2.453 33.8 12.2 30 7.7
2007-06-14 08:13:27 51°19.354 3°2.586 24.5 12.1 19 7.7
2007-06-14 08:14:27 51°19.536 3°2.72 32.2 12 26 7.5
2007-06-14 08:15:27 51°19.723 3°2.829 24.9 11.9 22 7.3
2007-06-14 08:16:27 51°19.898 3°2.97 33.9 11.7 27 6.6
2007-06-14 08:17:27 51°20.081 3°3.069 22.1 11.8 19 7.1
2007-06-14 08:18:27 51°20.256 3°3.212 34 12 27 7.4
2007-06-14 08:19:27 51°20.444 3°3.328 27 12.3 24 8
2007-06-14 08:20:27 51°20.63 3°3.459 27.3 12.2 22 8.4
2007-06-14 08:21:27 51°20.817 3°3.59 29 12.3 22 9
2007-06-14 08:22:27 51°21 3°3.733 34.7 12.2 28 9.6
2007-06-14 08:23:27 51°21.181 3°3.882 33.6 12.2 27 10.1
2007-06-14 08:24:27 51°21.362 3°4.033 33.5 12.3 27 10.7
2007-06-14 08:25:27 51°21.543 3°4.184 33.3 12.3 27 11
2007-06-14 08:26:27 51°21.725 3°4.336 33.3 12.4 28 11.3
2007-06-14 08:27:27 51°21.903 3°4.498 37 12.3 31 11.6
2007-06-14 08:28:27 51°22.079 3°4.667 36.8 12.3 31 11.8
2007-06-14 08:29:27 51°22.253 3°4.835 36.2 11.8 32 11.8
2007-06-14 08:30:27 51°22.408 3°4.989 37.1 9.5 32 11.8
2007-06-14 08:31:27 51°22.501 3°5.086 42.7 4.4 40 12
2007-06-14 08:32:27 51°22.533 3°5.155 62.1 2.4 65 12.2
2007-06-14 08:33:27 51°22.535 3°5.192 83.8 0.9 113 12
2007-06-14 08:34:27 51°22.526 3°5.211 95.1 0.8 135 12.1
2007-06-14 08:35:27 51°22.516 3°5.225 99.4 0.8 143 12.2
2007-06-14 08:36:27 51°22.505 3°5.235 101.1 0.7 153 12
2007-06-14 08:37:27 51°22.495 3°5.243 103.7 0.7 157 12.1
2007-06-14 08:38:27 51°22.484 3°5.249 106.7 0.6 159 12.1
2007-06-14 08:39:27 51°22.473 3°5.254 108.8 0.7 165 12.2
2007-06-14 08:40:27 51°22.463 3°5.258 111.1 0.6 163 12.3
2007-06-14 08:41:27 51°22.453 3°5.262 113 0.6 169 12.2
2007-06-14 08:42:27 51°22.442 3°5.265 117.4 0.7 172 12.4
2007-06-14 08:43:27 51°22.43 3°5.266 121.5 0.7 176 12.3
2007-06-14 08:44:27 51°22.419 3°5.267 125.7 0.7 177 12.4
2007-06-14 08:45:27 51°22.407 3°5.268 129.7 0.7 176 12.4
2007-06-14 08:46:27 51°22.394 3°5.268 132.5 0.8 181 12.4
2007-06-14 08:47:27 51°22.382 3°5.268 135 0.7 178 12.4
2007-06-14 08:48:27 51°22.369 3°5.268 137.6 0.8 180 12.4
2007-06-14 08:49:27 51°22.356 3°5.267 141 0.8 182 12.4
2007-06-14 08:50:27 51°22.342 3°5.266 144.4 0.8 183 12.4
2007-06-14 08:51:27 51°22.329 3°5.265 147.7 0.8 183 12.4
2007-06-14 08:52:27 51°22.315 3°5.263 151 0.8 189 12.4
2007-06-14 08:53:27 51°22.301 3°5.26 154.2 0.8 188 12.5
2007-06-14 08:54:27 51°22.278 3°5.258 173.7 2.6 185 12.5
2007-06-14 08:55:27 51°22.222 3°5.236 194.8 3.4 196 12.5
2007-06-14 08:56:27 51°22.168 3°5.215 190.2 3.3 192 12.4
2007-06-14 08:57:27 51°22.114 3°5.191 200.7 3.4 199 12.4
2007-06-14 08:58:27 51°22.064 3°5.161 203.4 3.3 200 12.4
2007-06-14 08:59:28 51°22.009 3°5.119 214.7 4 214 12.4
2007-06-14 09:00:27 51°21.963 3°5.046 239.1 3.8 233 12.3
2007-06-14 09:01:27 51°21.93 3°4.963 247.2 3.6 240 12.3
2007-06-14 09:02:27 51°21.901 3°4.882 247.2 3.5 239 12.2
2007-06-14 09:03:27 51°21.873 3°4.803 249.9 3.4 244 12.3
2007-06-14 09:04:27 51°21.851 3°4.722 256.2 3.3 249 12.2
2007-06-14 09:05:27 51°21.832 3°4.64 262 3.3 252 12.2
2007-06-14 09:06:27 51°21.816 3°4.557 260.8 3.3 252 12.3
2007-06-14 09:07:27 51°21.798 3°4.475 258 3.3 249 12.2
2007-06-14 09:08:27 51°21.778 3°4.394 255.6 3.3 248 12.2
2007-06-14 09:09:27 51°21.756 3°4.314 253.5 3.3 245 12.2
2007-06-14 09:10:27 51°21.733 3°4.235 251.1 3.3 241 12.2
2007-06-14 09:11:27 51°21.707 3°4.158 248.2 3.2 242 12.2
2007-06-14 09:12:27 51°21.68 3°4.084 245.5 3.3 238 12.1
2007-06-14 09:13:28 51°21.65 3°4.011 242.8 3.2 235 12.1
2007-06-14 09:14:27 51°21.62 3°3.943 239.8 3.2 234 12.2
2007-06-14 09:15:28 51°21.587 3°3.872 242.3 3.2 234 12.1
2007-06-14 09:16:27 51°21.559 3°3.803 246.7 3.1 239 12.2
2007-06-14 09:17:27 51°21.534 3°3.731 250.2 3.1 243 12.1
2007-06-14 09:18:27 51°21.513 3°3.657 255.5 3 247 12
2007-06-14 09:19:27 51°21.5 3°3.582 264.8 2.9 258 12.1
2007-06-14 09:20:27 51°21.49 3°3.506 267.2 2.9 261 12.1
2007-06-14 09:21:27 51°21.49 3°3.437 293.8 2.3 290 12.2
2007-06-14 09:22:27 51°21.513 3°3.397 335 1.6 326 12.2
2007-06-14 09:23:27 51°21.531 3°3.381 342.5 1.1 337 12.3
2007-06-14 09:24:27 51°21.546 3°3.372 343.3 0.8 342 12.3
2007-06-14 09:25:27 51°21.567 3°3.367 359 2.9 10 12.4
2007-06-14 09:26:27 51°21.615 3°3.438 51.5 3.8 54 12.5
2007-06-14 09:27:27 51°21.65 3°3.534 62.4 4.1 65 12.5
2007-06-14 09:28:27 51°21.676 3°3.632 67.6 3.6 72 12.5
2007-06-14 09:29:28 51°21.703 3°3.714 52.3 4.2 57 12.6
2007-06-14 09:30:27 51°21.772 3°3.885 58.7 9.5 58 12.6
2007-06-14 09:31:28 51°21.873 3°4.103 51.8 10.3 51 12.5
2007-06-14 09:32:27 51°21.975 3°4.307 52.9 9.1 52 12.8
2007-06-14 09:33:28 51°22.051 3°4.466 50.9 6.4 52 12.9
2007-06-14 09:34:27 51°22.104 3°4.564 37.8 3.6 44 13
2007-06-14 09:35:28 51°22.138 3°4.617 31.3 2.4 44 13.1
2007-06-14 09:36:27 51°22.164 3°4.654 25.4 1.8 43 13.1
2007-06-14 09:37:27 51°22.184 3°4.685 20.7 1.5 45 13.1
2007-06-14 09:38:27 51°22.203 3°4.714 18.9 2.2 38 13.2
2007-06-14 09:39:27 51°22.234 3°4.797 65.4 5.8 66 13.3
2007-06-14 09:40:27 51°22.276 3°5.013 79.1 10.4 78 13.2
2007-06-14 09:41:27 51°22.315 3°5.341 81.2 13.8 78 13.2
2007-06-14 09:42:27 51°22.36 3°5.71 81.1 14.2 79 13.4
2007-06-14 09:43:27 51°22.407 3°6.081 79.8 14.2 78 13.3
2007-06-14 09:44:27 51°22.461 3°6.45 78.5 14.2 76 13.5
2007-06-14 09:45:27 51°22.515 3°6.821 79.3 14.4 77 13.4
2007-06-14 09:46:27 51°22.568 3°7.195 79.6 14.5 77 13.7
2007-06-14 09:47:27 51°22.622 3°7.571 81.2 14.5 80 13.8
2007-06-14 09:48:28 51°22.673 3°7.952 73.7 14.3 69 13.9
2007-06-14 09:49:29 51°22.775 3°8.309 67.5 14.6 66 14
2007-06-14 09:50:28 51°22.874 3°8.657 67.5 14.7 65 14.2
2007-06-14 09:51:28 51°22.975 3°9.015 67.8 14.8 66 14.3
2007-06-14 09:52:28 51°23.075 3°9.375 68.2 14.9 67 19.3
2007-06-14 09:53:28 51°23.169 3°9.736 67.5 14.8 68 15.4
2007-06-14 09:54:27 51°23.264 3°10.096 68.5 15 67 14.6
2007-06-14 09:55:28 51°23.364 3°10.473 68.1 15 67 14.1
2007-06-14 09:56:27 51°23.46 3°10.835 68.7 15.1 67 13.9
2007-06-14 09:57:28 51°23.559 3°11.21 68.9 15.1 67 13.7
2007-06-14 09:58:28 51°23.659 3°11.579 68.2 15.2 67 13.4
2007-06-14 09:59:27 51°23.757 3°11.944 68.2 15.1 67 13.2
2007-06-14 10:00:27 51°23.855 3°12.317 68.5 15.2 67 13.3
2007-06-14 10:01:27 51°23.952 3°12.693 68.5 15.3 68 13.8
2007-06-14 10:02:27 51°24.047 3°13.072 68 15.4 68 14.1
2007-06-14 10:03:27 51°24.143 3°13.453 67.6 15.5 68 14.7
2007-06-14 10:04:27 51°24.239 3°13.837 68.2 15.6 68 15.7
2007-06-14 10:05:28 51°24.339 3°14.229 68.6 15.7 68 17
2007-06-14 10:06:27 51°24.436 3°14.612 68.1 15.7 67 18.9
2007-06-14 10:07:28 51°24.526 3°15.016 74.7 15.8 75 19.5
2007-06-14 10:08:27 51°24.542 3°15.422 102.2 15.6 99 19.4
2007-06-14 10:09:28 51°24.491 3°15.841 104.5 15.9 97 19.5
2007-06-14 10:10:27 51°24.459 3°16.255 100.5 16 97 19.5
2007-06-14 10:11:28 51°24.428 3°16.685 100.4 16 97 19.3
2007-06-14 10:12:27 51°24.399 3°17.102 99.9 16 96 19
2007-06-14 10:13:27 51°24.368 3°17.527 99.7 16.1 97 19.1
2007-06-14 10:14:27 51°24.341 3°17.955 99.2 16.1 94 19.1
2007-06-14 10:15:27 51°24.317 3°18.384 99.4 16.3 96 19.3
2007-06-14 10:16:28 51°24.28 3°18.818 104.8 16.1 100 19.4
2007-06-14 10:17:27 51°24.239 3°19.233 104.9 16 98 19
2007-06-14 10:18:27 51°24.198 3°19.654 105 16 99 18.8
2007-06-14 10:19:27 51°24.162 3°20.074 102.9 15.9 97 18.2
2007-06-14 10:20:27 51°24.137 3°20.496 100 16.1 94 17.5
2007-06-14 10:21:28 51°24.12 3°20.929 99.4 16 92 17.3
2007-06-14 10:22:27 51°24.119 3°21.348 94 16.1 86 17.3
2007-06-14 10:23:28 51°24.153 3°21.781 84.7 16.1 82 17.5
2007-06-14 10:24:27 51°24.194 3°22.2 85.2 16.2 82 18.1
2007-06-14 10:25:28 51°24.235 3°22.634 86.1 16.3 81 18.1
2007-06-14 10:26:27 51°24.282 3°23.052 83.8 16.2 80 17.7
2007-06-14 10:27:28 51°24.331 3°23.485 84.2 16.3 80 18.4
2007-06-14 10:28:27 51°24.378 3°23.904 83.7 16.2 80 18.8
2007-06-14 10:29:28 51°24.428 3°24.337 83.7 16.3 80 18.9
2007-06-14 10:30:27 51°24.474 3°24.756 84.5 16.3 80 18.8
2007-06-14 10:31:27 51°24.521 3°25.186 84.1 16.4 79 18.8
2007-06-14 10:32:28 51°24.57 3°25.623 84.6 16.4 80 19
2007-06-14 10:33:27 51°24.615 3°26.045 84.1 16.4 80 19
2007-06-14 10:34:28 51°24.663 3°26.483 84.1 16.4 81 19.1
2007-06-14 10:35:27 51°24.708 3°26.907 84.3 16.5 81 19.2
2007-06-14 10:36:27 51°24.753 3°27.338 84.1 16.4 80 19.3
2007-06-14 10:37:27 51°24.799 3°27.77 84.1 16.5 81 19.8
2007-06-14 10:38:27 51°24.843 3°28.206 84.4 16.6 80 20
2007-06-14 10:39:28 51°24.889 3°28.651 84.5 16.7 81 20.6
2007-06-14 10:40:27 51°24.939 3°29.082 78.4 16.7 76 21.7
2007-06-14 10:41:28 51°25.011 3°29.515 76.4 16.4 75 22.5
2007-06-14 10:42:27 51°25.077 3°29.932 76.9 16.5 76 24.3
2007-06-14 10:43:28 51°25.145 3°30.365 76.8 16.5 76 26.1
2007-06-14 10:44:27 51°25.203 3°30.79 80.4 16.7 80 27.4
2007-06-14 10:45:28 51°25.254 3°31.238 80.4 16.8 79 28.3
2007-06-14 10:46:27 51°25.298 3°31.674 83.4 17 84 28.9
2007-06-14 10:47:28 51°25.308 3°32.138 93.6 17.1 90 28.8
2007-06-14 10:48:28 51°25.31 3°32.595 92.2 17.2 89 27.8
2007-06-14 10:49:27 51°25.304 3°33.044 94.8 17.2 92 26.4
2007-06-14 10:50:28 51°25.286 3°33.441 99.1 11.8 94 26.4
2007-06-14 10:51:27 51°25.28 3°33.699 94.4 8.7 91 26.4
2007-06-14 10:52:28 51°25.281 3°33.911 92.1 7.3 89 26.8
2007-06-14 10:53:27 51°25.28 3°34.089 106.6 6.3 95 27
2007-06-14 10:54:27 51°25.264 3°34.241 136.6 5.3 104 26.8
2007-06-14 10:55:27 51°25.235 3°34.374 154.2 5.6 115 26.8
2007-06-14 10:56:27 51°25.185 3°34.473 205.4 3.8 157 26.3
2007-06-14 10:57:28 51°25.151 3°34.501 238.7 2.3 162 25.9
2007-06-14 10:58:27 51°25.122 3°34.489 257 1.7 224 25.5
2007-06-14 10:59:28 51°25.087 3°34.446 247.9 4 224 25
2007-06-14 11:00:27 51°25.051 3°34.356 264.9 2.9 256 24.1
2007-06-14 11:01:28 51°25.022 3°34.313 255.8 1.8 237 23.5
2007-06-14 11:02:27 51°25.01 3°34.281 254 1.8 226 23.3
2007-06-14 11:03:28 51°25 3°34.223 259.7 2.9 237 23.2
2007-06-14 11:04:28 51°24.985 3°34.179 274 0.6 50 23
2007-06-14 11:05:28 51°24.999 3°34.213 299.3 2.1 59 23.2
2007-06-14 11:06:28 51°25.016 3°34.272 310.9 2.8 71 23.4
2007-06-14 11:07:27 51°25.033 3°34.351 331 3.5 71 23.7
2007-06-14 11:08:28 51°25.05 3°34.444 341.3 3.8 74 24.1
2007-06-14 11:09:27 51°25.065 3°34.541 351.4 3.9 78 24.5
2007-06-14 11:10:27 51°25.077 3°34.643 -999 3.9 80 24.8
2007-06-14 11:11:28 51°25.088 3°34.75 6.6 4 81 25
2007-06-14 11:12:27 51°25.098 3°34.855 12.4 4.1 81 25.3
2007-06-14 11:13:28 51°25.108 3°34.964 15.4 4.1 82 25.4
2007-06-14 11:14:27 51°25.126 3°35.069 3.2 4.7 50 25.7
2007-06-14 11:15:28 51°25.149 3°35.075 257.4 2.5 221 26.2
2007-06-14 11:16:27 51°25.105 3°35.006 255.9 3.9 241 25.3
2007-06-14 11:17:28 51°25.084 3°34.898 261.8 4.5 254 24.9
2007-06-14 11:18:27 51°25.061 3°34.761 261.2 6.5 254 24.5
2007-06-14 11:19:28 51°25.035 3°34.568 258.8 7.8 251 23.9
2007-06-14 11:20:28 51°25.012 3°34.389 264.2 6.2 256 23.4
2007-06-14 11:21:28 51°25.004 3°34.268 275.2 2.9 277 23.5
2007-06-14 11:22:28 51°24.994 3°34.231 263.4 1 250 23.4
2007-06-14 11:23:28 51°24.997 3°34.213 279.2 0.4 325 23.5
2007-06-14 11:24:28 51°25.005 3°34.22 284.6 0.9 53 23.6
2007-06-14 11:25:27 51°25.014 3°34.264 298.5 2.4 77 23.7
2007-06-14 11:26:28 51°25.016 3°34.35 320 3.7 95 23.9
2007-06-14 11:27:27 51°25.007 3°34.451 319.1 3.9 98 4.7
2007-06-14 11:28:28 51°24.999 3°34.557 310.3 4 96 23.6
2007-06-14 11:29:28 51°24.999 3°34.602 264.8 0.9 240 23.4
2007-06-14 11:30:28 51°24.986 3°34.494 264.3 5.7 254 23.1
2007-06-14 11:31:28 51°24.978 3°34.347 278.7 4.3 288 23
2007-06-14 11:32:28 51°24.984 3°34.269 265.8 2.2 253 23.3
2007-06-14 11:33:28 51°24.993 3°34.212 293.2 2.5 312 23.5
2007-06-14 11:34:27 51°25.024 3°34.197 319.9 2.6 61 24.1
2007-06-14 11:35:28 51°25.037 3°34.273 349.4 3.1 77 24.4
2007-06-14 11:36:27 51°25.048 3°34.355 359.6 3.3 80 24.5
2007-06-14 11:37:28 51°25.057 3°34.445 8.8 3.4 82 24.8
2007-06-14 11:38:28 51°25.063 3°34.535 14.8 3.4 85 24.7
2007-06-14 11:39:27 51°25.068 3°34.625 16.6 3.4 86 25
2007-06-14 11:40:28 51°25.078 3°34.715 4.3 3.6 62 25.1
2007-06-14 11:41:27 51°25.104 3°34.73 272.3 1.7 241 25.6
2007-06-14 11:42:28 51°25.08 3°34.645 266.8 4.3 257 25.2
2007-06-14 11:43:28 51°25.052 3°34.527 256.2 5.1 240 24.8
2007-06-14 11:44:28 51°25.019 3°34.402 265 5.1 258 24.1
2007-06-14 11:45:28 51°24.999 3°34.269 259.9 5.3 247 23.6
2007-06-14 11:46:28 51°24.97 3°34.182 263.9 2 256 23.3
2007-06-14 11:47:28 51°24.976 3°34.155 284.4 0.6 325 23.4
2007-06-14 11:48:28 51°24.985 3°34.159 286.7 0.7 39 23.5
2007-06-14 11:49:28 51°24.993 3°34.177 283.9 0.9 62 23.6
2007-06-14 11:50:28 51°24.997 3°34.197 274.7 0.6 81 23.7
2007-06-14 11:51:28 51°24.998 3°34.205 275.3 0.1 30 23.7
2007-06-14 11:52:27 51°25.004 3°34.205 284.1 0.6 355 23.8
2007-06-14 11:53:28 51°25.014 3°34.203 283.4 0.6 353 24
2007-06-14 11:54:28 51°25.02 3°34.2 276.1 0.2 323 24.2
2007-06-14 11:55:28 51°25.02 3°34.196 272.5 0.2 283 24.2
2007-06-14 11:56:28 51°25.024 3°34.19 279.1 0.5 330 24.2
2007-06-14 11:57:27 51°25.032 3°34.187 283.4 0.6 355 24.4
2007-06-14 11:58:28 51°25.043 3°34.187 287 0.8 2 24.7
2007-06-14 11:59:28 51°25.057 3°34.19 290.3 0.9 11 24.9
2007-06-14 12:00:28 51°25.069 3°34.194 282.3 0.6 19 25.4
2007-06-14 12:01:28 51°25.074 3°34.2 271.5 0.2 65 25.4
2007-06-14 12:02:28 51°25.071 3°34.207 256.9 0.6 142 25.9
2007-06-14 12:03:28 51°25.059 3°34.218 248.9 0.9 153 25.2
2007-06-14 12:04:28 51°25.047 3°34.226 254.8 0.6 161 24.8
2007-06-14 12:05:28 51°25.038 3°34.229 259.2 0.4 175 24.5
2007-06-14 12:06:28 51°25.031 3°34.228 258.3 0.6 209 24.5
2007-06-14 12:07:28 51°25.015 3°34.207 252.5 1.7 226 24.1
2007-06-14 12:08:28 51°24.996 3°34.167 254.3 1.9 238 23.7
2007-06-14 12:09:28 51°24.981 3°34.129 258.5 1.5 243 23.5
2007-06-14 12:10:28 51°24.972 3°34.093 262.3 1.4 253 23.4
2007-06-14 12:11:28 51°24.963 3°34.057 258.2 1.5 252 23.3
2007-06-14 12:12:28 51°24.953 3°34.018 256.3 1.7 242 23.1
2007-06-14 12:13:28 51°24.939 3°33.978 259 1.8 244 23
2007-06-14 12:14:28 51°24.931 3°33.933 269.8 1.7 260 22.8
2007-06-14 12:15:28 51°24.927 3°33.888 269.7 1.8 256 22.8
2007-06-14 12:16:28 51°24.918 3°33.845 263.5 1.7 247 22.7
2007-06-14 12:17:28 51°24.905 3°33.805 259.4 1.6 243 22.3
2007-06-14 12:18:28 51°24.897 3°33.77 267 1.2 255 22.2
2007-06-14 12:19:28 51°24.894 3°33.739 274.9 1.2 268 22.3
2007-06-14 12:20:28 51°24.897 3°33.706 282.5 1.3 287 22.5
2007-06-14 12:21:28 51°24.906 3°33.674 291.4 1.4 306 22.8
2007-06-14 12:22:28 51°24.924 3°33.645 300.8 1.6 321 23.4
2007-06-14 12:23:28 51°24.948 3°33.62 308.4 1.7 327 24.1
2007-06-14 12:24:28 51°24.963 3°33.591 285.9 1.3 293 24.4
2007-06-14 12:25:28 51°24.963 3°33.556 265.6 1.4 252 24.6
2007-06-14 12:26:28 51°24.947 3°33.525 248 1.7 222 24.5
2007-06-14 12:27:28 51°24.924 3°33.494 245.5 1.8 221 24.2
2007-06-14 12:28:28 51°24.901 3°33.462 247.6 1.8 228 24.3
2007-06-14 12:29:28 51°24.895 3°33.422 276.2 1.5 270 24.6
2007-06-14 12:30:28 51°24.897 3°33.381 276.6 1.6 272 25.1
2007-06-14 12:31:28 51°24.896 3°33.337 272.3 1.7 262 25.6
2007-06-14 12:32:28 51°24.888 3°33.292 264.8 1.8 250 26
2007-06-14 12:33:28 51°24.893 3°33.244 302.3 2.2 318 26.2
2007-06-14 12:34:28 51°24.936 3°33.244 2.9 3.2 24 26.2
2007-06-14 12:35:28 51°24.972 3°33.313 58.9 3.6 69 25.8
2007-06-14 12:36:28 51°24.987 3°33.411 77.2 3.9 79 25.4
2007-06-14 12:37:28 51°24.996 3°33.514 80.4 3.7 83 25.1
2007-06-14 12:38:28 51°25 3°33.602 85 3 89 24.9
2007-06-14 12:39:28 51°24.999 3°33.675 91 2.6 93 24.6
2007-06-14 12:40:28 51°24.997 3°33.742 90.7 2.6 94 24.3
2007-06-14 12:41:28 51°24.999 3°33.821 80.5 3.2 83 24.2
2007-06-14 12:42:28 51°25.003 3°33.912 87.8 3.6 89 24.1
2007-06-14 12:43:28 51°25 3°34.008 98.5 3.5 97 23.8
2007-06-14 12:44:28 51°24.99 3°34.095 105.4 3.3 101 23.6
2007-06-14 12:45:28 51°24.981 3°34.18 100.2 3.3 98 23.3
2007-06-14 12:46:28 51°24.978 3°34.266 92.9 3.2 91 23.2
2007-06-14 12:47:28 51°24.978 3°34.352 91.7 3.2 90 23.1
2007-06-14 12:48:28 51°24.979 3°34.437 92.3 3.1 91 22.9
2007-06-14 12:49:28 51°24.975 3°34.518 97.3 3.1 97 22.8
2007-06-14 12:50:28 51°24.971 3°34.603 94.6 3.3 92 22.6
2007-06-14 12:51:28 51°24.972 3°34.695 87.8 3.6 85 22.5
2007-06-14 12:52:28 51°24.982 3°34.784 75.6 3 74 22.8
2007-06-14 12:53:28 51°24.997 3°34.847 61.9 2.2 63 23.4
2007-06-14 12:54:28 51°25.014 3°34.899 65.7 2.5 69 23.4
2007-06-14 12:55:28 51°25.024 3°35.032 87 5.8 83 23.6
2007-06-14 12:56:28 51°25.045 3°35.147 66.8 3.9 67 24.3
2007-06-14 12:57:28 51°25.025 3°35.258 145.9 5.1 150 24.1
2007-06-14 12:58:28 51°24.959 3°35.22 241.5 4 241 22.5
2007-06-14 12:59:28 51°24.945 3°35.124 265.9 3.5 263 22.1
2007-06-14 13:00:28 51°24.935 3°35.033 263.3 3.4 261 21.5
2007-06-14 13:01:28 51°24.933 3°34.944 274.5 3.2 273 21.4
2007-06-14 13:02:28 51°24.939 3°34.873 284.2 2.3 284 21.5
2007-06-14 13:03:28 51°24.949 3°34.822 286.6 1.8 288 21.9
2007-06-14 13:04:28 51°24.956 3°34.779 279 1.6 280 22.3
2007-06-14 13:05:28 51°24.957 3°34.735 270 1.7 269 22.1
2007-06-14 13:06:28 51°24.954 3°34.689 265.4 1.8 262 22
2007-06-14 13:07:28 51°24.949 3°34.641 262.7 1.9 260 21.9
2007-06-14 13:08:28 51°24.943 3°34.592 262.6 1.9 255 21.7
2007-06-14 13:09:28 51°24.936 3°34.542 263.5 1.9 259 21.5
2007-06-14 13:10:28 51°24.932 3°34.49 270 2 266 21.4
2007-06-14 13:11:28 51°24.932 3°34.437 277.8 2 275 21.3
2007-06-14 13:12:28 51°24.936 3°34.383 282 2.1 276 21.5
2007-06-14 13:13:28 51°24.937 3°34.329 276.4 2.1 269 21.6
2007-06-14 13:14:28 51°24.935 3°34.274 269.9 2.1 263 21.7
2007-06-14 13:15:28 51°24.927 3°34.219 261.5 2.1 255 21.4
2007-06-14 13:16:28 51°24.915 3°34.166 254.7 2.1 249 21.2
2007-06-14 13:17:28 51°24.903 3°34.111 256.9 2.2 252 21.1
2007-06-14 13:18:28 51°24.894 3°34.053 267.8 2.2 263 21
2007-06-14 13:19:28 51°24.896 3°33.995 284.1 2.1 281 21.1
2007-06-14 13:20:28 51°24.906 3°33.94 295.4 2.2 290 21.6
2007-06-14 13:21:28 51°24.919 3°33.886 298.9 2.2 293 22.1
2007-06-14 13:22:28 51°24.934 3°33.833 301.5 2.1 295 22.6
2007-06-14 13:23:28 51°24.948 3°33.787 306.2 1.7 298 23.1
2007-06-14 13:24:28 51°24.961 3°33.751 313.5 1.4 303 23.4
2007-06-14 13:25:28 51°24.974 3°33.725 323.7 1.1 313 23.7
2007-06-14 13:26:28 51°24.986 3°33.706 331.9 0.9 316 23.9
2007-06-14 13:27:28 51°24.996 3°33.692 342.3 0.7 324 24.2
2007-06-14 13:28:28 51°25.004 3°33.682 354.7 0.6 325 24.2
2007-06-14 13:29:28 51°25.011 3°33.674 3.4 0.4 336 24.4
2007-06-14 13:30:28 51°25.016 3°33.669 11.3 0.3 323 24.4
2007-06-14 13:31:28 51°25.023 3°33.664 18 0.7 355 24.5
2007-06-14 13:32:28 51°25.059 3°33.701 43.6 6.3 39 24.9
2007-06-14 13:33:28 51°25.203 3°33.871 36.4 12.6 25 26.8
2007-06-14 13:34:29 51°25.41 3°33.835 338.4 13.1 328 27.2
2007-06-14 13:35:29 51°25.56 3°33.583 305.2 13.2 298 27.5
2007-06-14 13:36:29 51°25.581 3°33.244 265.4 13 262 28.1
2007-06-14 13:37:29 51°25.565 3°32.896 268.4 13.2 268 28.5
2007-06-14 13:38:29 51°25.537 3°32.547 262.6 13.4 262 28.7
2007-06-14 13:39:29 51°25.508 3°32.19 264.5 13.6 263 27.4
2007-06-14 13:40:29 51°25.478 3°31.828 264.9 13.8 263 27.2
2007-06-14 13:41:29 51°25.45 3°31.465 265.7 13.8 264 28.6
2007-06-14 13:42:29 51°25.425 3°31.104 266 13.6 264 28.7
2007-06-14 13:43:29 51°25.403 3°30.746 265.7 13.4 264 27.6
2007-06-14 13:44:28 51°25.38 3°30.397 266.3 13.5 265 26.5
2007-06-14 13:45:29 51°25.339 3°30.037 261.7 13.6 259 25.3
2007-06-14 13:46:29 51°25.298 3°29.69 262 13.1 259 24.2
2007-06-14 13:47:29 51°25.261 3°29.351 262.1 12.8 259 23.3
2007-06-14 13:48:29 51°25.213 3°29.02 259.6 12.7 257 22.5
2007-06-14 13:49:29 51°25.166 3°28.688 260.3 12.9 258 21.5
2007-06-14 13:50:29 51°25.113 3°28.347 259.2 13.4 255 21.7
2007-06-14 13:51:29 51°25.089 3°28.004 269.6 12.8 267 21.5
2007-06-14 13:52:29 51°25.077 3°27.663 269.9 12.8 266 19.9
2007-06-14 13:53:29 51°25.065 3°27.323 270.1 12.8 267 18.5
2007-06-14 13:54:29 51°25.079 3°26.982 280.5 12.9 278 19.7
2007-06-14 13:55:29 51°25.113 3°26.642 280.9 13 279 18.1
2007-06-14 13:56:29 51°25.141 3°26.3 279.2 13.1 274 17.6
2007-06-14 13:57:29 51°25.182 3°25.952 290.8 13.4 286 16.5
2007-06-14 13:58:29 51°25.243 3°25.604 291.3 13.6 286 15
2007-06-14 13:59:29 51°25.304 3°25.254 291.2 13.7 285 13.2
2007-06-14 14:00:29 51°25.365 3°24.904 290.5 13.7 285 12.9
2007-06-14 14:01:29 51°25.416 3°24.551 285.5 13.5 281 15
2007-06-14 14:02:29 51°25.453 3°24.197 283.8 13.5 279 15.3
2007-06-14 14:03:29 51°25.493 3°23.844 284 13.5 280 14
2007-06-14 14:04:29 51°25.532 3°23.489 284.1 13.5 280 15
2007-06-14 14:05:29 51°25.571 3°23.134 283.6 13.6 280 13.4
2007-06-14 14:06:29 51°25.612 3°22.779 284.7 13.5 280 12.1
2007-06-14 14:07:29 51°25.653 3°22.425 284.3 13.5 281 10.9
2007-06-14 14:08:29 51°25.689 3°22.073 280.9 13.4 278 10.3
2007-06-14 14:09:29 51°25.715 3°21.718 277.8 13.5 275 11.5
2007-06-14 14:10:29 51°25.733 3°21.362 276 13.4 271 12.5
2007-06-14 14:11:29 51°25.726 3°21.004 270.6 13.4 268 12.5
2007-06-14 14:12:29 51°25.719 3°20.651 271.1 13.2 269 12.3
2007-06-14 14:13:29 51°25.714 3°20.3 271.1 13.3 269 12.3
2007-06-14 14:14:29 51°25.719 3°20.04 278.6 6.7 280 12.5
2007-06-14 14:15:29 51°25.746 3°19.92 296.3 3.8 294 12.5
2007-06-14 14:16:29 51°25.758 3°19.846 265.5 2.3 270 12.6
2007-06-14 14:17:29 51°25.747 3°19.797 234.1 2.5 236 12.3
2007-06-14 14:18:29 51°25.713 3°19.717 236.9 4 239 12.4
2007-06-14 14:19:29 51°25.686 3°19.621 250.5 3.9 252 12.3
2007-06-14 14:20:29 51°25.679 3°19.518 263.7 3.9 266 12.2
2007-06-14 14:21:29 51°25.672 3°19.425 261.9 3.3 262 12.2
2007-06-14 14:22:29 51°25.661 3°19.349 258 2.8 254 12.1
2007-06-14 14:23:29 51°25.649 3°19.278 262.7 2.7 255 -999
2007-06-14 14:24:29 51°25.644 3°19.205 271.3 2.9 268 12.1
2007-06-14 14:25:29 51°25.641 3°19.128 271.9 2.9 266 12
2007-06-14 14:26:29 51°25.638 3°19.05 270.9 2.9 265 12
2007-06-14 14:27:29 51°25.631 3°18.974 267.6 2.9 260 11.9
2007-06-14 14:28:29 51°25.623 3°18.899 266.3 2.9 261 11.8
2007-06-14 14:29:34 51°25.616 3°18.814 269.1 3.1 266 11.8
2007-06-14 14:30:39 51°25.618 3°18.724 278.9 3.1 277 11.7
2007-06-14 14:32:33 51°25.61 3°18.569 268.9 3 261 11.7
2007-06-14 14:35:09 51°25.59 3°18.351 272.6 3 270 11.4
2007-06-14 14:36:59 51°25.603 3°18.217 280.5 2.7 275 11.3
2007-06-14 14:38:09 51°25.606 3°18.146 280.2 2 278 11.2
2007-06-14 14:39:29 51°25.608 3°18.085 276.8 1.6 266 11.3
2007-06-14 14:41:47 51°25.611 3°17.967 284.3 4.3 278 11.1
2007-06-14 14:43:52 51°25.531 3°17.406 256 13.7 256 10.7
2007-06-14 14:45:53 51°25.416 3°16.703 254.4 13.1 255 11
2007-06-14 14:48:16 51°25 3°15.898 254.1 13.3 254 12.5
2007-06-14 14:51:26 51°25.082 3°14.81 254 13.5 255 14.6
2007-06-14 14:52:31 51°25.017 3°14.433 254.1 13.6 255 15.1
2007-06-14 14:58:21 51°24.666 3°12.393 254.2 13.6 254 15.3
2007-06-14 14:59:21 51°24.604 3°12.044 254.2 13.6 254 15
2007-06-14 15:00:21 51°24.543 3°11.697 254.7 13.6 254 17
2007-06-14 15:01:21 51°24.474 3°11.354 251.1 13.5 250 16.6
2007-06-14 15:02:21 51°24.4 3°11.014 251.2 13.5 250 17.9
2007-06-14 15:03:21 51°24.342 3°10.667 259.5 13.6 259 18.4
2007-06-14 15:04:21 51°24.296 3°10.314 259.4 13.5 259 19
2007-06-14 15:05:21 51°24.25 3°9.96 259.4 13.6 257 19.1
2007-06-14 15:06:21 51°24.204 3°9.607 260 13.6 259 19.2
2007-06-14 15:07:21 51°24.158 3°9.253 259.3 13.7 258 19
2007-06-14 15:08:21 51°24.111 3°8.898 259.7 13.7 258 19
2007-06-14 15:09:26 51°24.059 3°8.515 259.6 13.6 258 19.2
2007-06-14 15:10:26 51°24.013 3°8.161 259.8 13.6 259 19.5
2007-06-14 15:11:36 51°23.956 3°7.749 259.5 13.6 258 19.2
2007-06-14 15:12:41 51°23.893 3°7.3 249.3 13.3 245 19.4
2007-06-14 15:13:46 51°23 3°7.063 232.2 13.4 231 19.2
2007-06-14 15:14:46 51°23.619 3°6 234.2 13.3 236 14.7
2007-06-14 15:15:56 51°23.475 3°6.438 237.3 13.3 234 13.4
2007-06-14 15:16:56 51°23.355 3°6.144 237.5 13.2 238 12.8
2007-06-14 15:18:01 51°23.221 3°5.824 236.6 13.3 235 12.5
2007-06-14 15:19:01 51°23.099 3°5.528 236.5 13.3 238 12
2007-06-14 15:20:26 51°22.929 3°5.106 237.2 13.3 238 12
2007-06-14 15:21:51 51°22.759 3°4.687 237.6 13.3 237 12.5